createdAt,value
2022-08-24T12:23:02.228Z,996.17
2022-08-24T12:24:01.782Z,996.17
2022-08-24T12:25:01.807Z,996.16
2022-08-24T12:26:01.744Z,996.15
2022-08-24T12:27:01.751Z,996.12
2022-08-24T12:28:01.754Z,996.12
2022-08-24T12:29:01.713Z,996.11
2022-08-24T12:30:05.246Z,996.06
2022-08-24T12:31:01.740Z,996.12
2022-08-24T12:32:01.703Z,996.09
2022-08-24T12:33:01.670Z,996.14
2022-08-24T12:34:01.661Z,996.16
2022-08-24T12:35:01.668Z,996.12
2022-08-24T12:36:01.639Z,996.10
2022-08-24T12:37:01.625Z,996.11
2022-08-24T12:38:01.620Z,996.14
2022-08-24T12:39:01.606Z,996.11
2022-08-24T12:40:01.697Z,996.10
2022-08-24T12:41:08.827Z,996.08
2022-08-24T12:42:02.572Z,996.11
2022-08-24T12:43:01.584Z,996.09
2022-08-24T12:44:01.552Z,996.05
2022-08-24T12:45:01.549Z,996.01
2022-08-24T12:46:01.587Z,996.05
2022-08-24T12:47:01.525Z,996.09
2022-08-24T12:48:01.522Z,996.05
2022-08-24T12:49:01.505Z,996.04
2022-08-24T12:50:01.496Z,996.08
2022-08-24T12:51:01.562Z,996.05
2022-08-24T12:52:01.473Z,996.03
2022-08-24T12:53:01.464Z,996.03
2022-08-24T12:54:01.505Z,996.00
2022-08-24T12:55:01.460Z,996.07
2022-08-24T12:56:01.459Z,996.03
2022-08-24T12:57:02.655Z,995.99
2022-08-24T12:58:01.412Z,996.12
2022-08-24T12:59:01.405Z,996.09
2022-08-24T13:00:01.404Z,996.04
2022-08-24T13:01:05.750Z,996.02
2022-08-24T13:02:02.303Z,996.02
2022-08-24T13:03:01.352Z,996.02
2022-08-24T13:04:01.331Z,995.99
2022-08-24T13:05:01.325Z,996.02
2022-08-24T13:06:01.323Z,996.00
2022-08-24T13:07:01.701Z,995.99
2022-08-24T13:08:01.313Z,995.98
2022-08-24T13:09:01.296Z,995.95
2022-08-24T13:10:01.301Z,995.96
2022-08-24T13:11:01.261Z,995.99
2022-08-24T13:12:01.733Z,995.97
2022-08-24T13:13:01.236Z,996.00
2022-08-24T13:14:01.255Z,995.98
2022-08-24T13:15:01.254Z,995.99
2022-08-24T13:16:01.290Z,995.98
2022-08-24T13:17:01.195Z,995.98
2022-08-24T13:18:03.295Z,995.95
2022-08-24T13:19:01.176Z,995.96
2022-08-24T13:20:01.157Z,995.96
2022-08-24T13:21:01.153Z,995.95
2022-08-24T13:22:01.144Z,995.96
2022-08-24T13:23:01.250Z,995.95
2022-08-24T13:24:01.127Z,995.97
2022-08-24T13:25:01.111Z,995.93
2022-08-24T13:26:01.106Z,995.90
2022-08-24T13:27:01.084Z,995.91
2022-08-24T13:28:01.110Z,995.89
2022-08-24T13:29:01.138Z,995.89
2022-08-24T13:30:01.051Z,995.84
2022-08-24T13:31:01.102Z,995.87
2022-08-24T13:32:01.029Z,995.85
2022-08-24T13:33:01.023Z,995.82
2022-08-24T13:34:01.028Z,995.84
2022-08-24T13:35:00.999Z,995.80
2022-08-24T13:36:00.987Z,995.83
2022-08-24T13:37:00.973Z,995.76
2022-08-24T13:39:16.962Z,995.74
2022-08-24T13:40:17.053Z,995.77
2022-08-24T13:41:28.047Z,995.72
2022-08-24T13:42:16.900Z,995.72
2022-08-24T13:43:16.890Z,995.74
2022-08-24T13:44:16.920Z,995.73
2022-08-24T13:45:16.914Z,995.71
2022-08-24T13:46:16.936Z,995.69
2022-08-24T13:47:16.851Z,995.68
2022-08-24T13:48:16.832Z,995.70
2022-08-24T13:49:16.821Z,995.72
2022-08-24T13:50:16.835Z,995.70
2022-08-24T13:51:16.827Z,995.65
2022-08-24T13:52:16.785Z,995.67
2022-08-24T13:53:16.785Z,995.68
2022-08-24T13:54:20.181Z,995.63
2022-08-24T13:55:16.788Z,995.63
2022-08-24T13:56:16.754Z,995.63
2022-08-24T13:57:16.779Z,995.62
2022-08-24T13:58:16.725Z,995.62
2022-08-24T13:59:16.716Z,995.62
2022-08-24T14:00:16.702Z,995.67
2022-08-24T14:01:16.722Z,995.68
2022-08-24T14:02:16.722Z,995.67
2022-08-24T14:03:17.402Z,995.67
2022-08-24T14:04:16.718Z,995.66
2022-08-24T14:05:16.666Z,995.66
2022-08-24T14:06:16.636Z,995.61
2022-08-24T14:07:16.634Z,995.61
2022-08-24T14:08:16.652Z,995.62
2022-08-24T14:09:16.627Z,995.59
2022-08-24T14:10:16.594Z,995.61
2022-08-24T14:11:16.591Z,995.63
2022-08-24T14:12:16.593Z,995.65
2022-08-24T14:13:16.604Z,995.65
2022-08-24T14:14:16.556Z,995.63
2022-08-24T14:15:16.581Z,995.68
2022-08-24T14:16:16.606Z,995.67
2022-08-24T14:17:19.760Z,995.64
2022-08-24T14:18:16.516Z,995.63
2022-08-24T14:19:16.593Z,995.64
2022-08-24T14:20:22.080Z,995.59
2022-08-24T14:21:17.976Z,995.59
2022-08-24T14:22:16.469Z,995.58
2022-08-24T14:23:16.475Z,995.59
2022-08-24T14:24:16.915Z,995.60
2022-08-24T14:25:16.445Z,995.54
2022-08-24T14:26:16.429Z,995.53
2022-08-24T14:27:17.446Z,995.52
2022-08-24T14:28:16.409Z,995.49
2022-08-24T14:29:16.423Z,995.50
2022-08-24T14:30:16.457Z,995.52
2022-08-24T14:31:16.461Z,995.54
2022-08-24T14:32:16.359Z,995.57
2022-08-24T14:33:16.347Z,995.56
2022-08-24T14:34:16.335Z,995.51
2022-08-24T14:35:16.357Z,995.52
2022-08-24T14:36:16.332Z,995.51
2022-08-24T14:37:16.322Z,995.47
2022-08-24T14:38:16.338Z,995.48
2022-08-24T14:39:16.287Z,995.44
2022-08-24T14:40:16.383Z,995.50
2022-08-24T14:41:16.277Z,995.49
2022-08-24T14:42:16.258Z,995.46
2022-08-24T14:43:16.296Z,995.44
2022-08-24T14:44:16.232Z,995.43
2022-08-24T14:45:16.227Z,995.45
2022-08-24T14:46:16.316Z,995.47
2022-08-24T14:47:16.207Z,995.43
2022-08-24T14:48:16.193Z,995.42
2022-08-24T14:49:16.205Z,995.41
2022-08-24T14:50:16.192Z,995.43
2022-08-24T14:51:16.210Z,995.41
2022-08-24T14:52:16.152Z,995.47
2022-08-24T14:53:16.178Z,995.44
2022-08-24T14:54:16.151Z,995.44
2022-08-24T14:55:16.159Z,995.50
2022-08-24T14:56:16.114Z,995.46
2022-08-24T14:57:16.434Z,995.44
2022-08-24T14:58:16.080Z,995.40
2022-08-24T14:59:16.093Z,995.40
2022-08-24T15:00:16.067Z,995.36
2022-08-24T15:01:16.177Z,995.38
2022-08-24T15:02:16.597Z,995.38
2022-08-24T15:03:16.027Z,995.37
2022-08-24T15:04:16.123Z,995.38
2022-08-24T15:05:17.064Z,995.38
2022-08-24T15:06:26.897Z,995.38
2022-08-24T15:07:17.007Z,995.35
2022-08-24T15:08:18.273Z,995.37
2022-08-24T15:09:15.977Z,995.36
2022-08-24T15:10:15.964Z,995.36
2022-08-24T15:11:15.959Z,995.41
2022-08-24T15:12:15.932Z,995.38
2022-08-24T15:13:15.942Z,995.35
2022-08-24T15:14:19.807Z,995.36
2022-08-24T15:15:16.908Z,995.32
2022-08-24T15:16:15.958Z,995.32
2022-08-24T15:17:15.878Z,995.29
2022-08-24T15:18:15.944Z,995.32
2022-08-24T15:19:15.857Z,995.30
2022-08-24T15:20:15.862Z,995.32
2022-08-24T15:21:15.835Z,995.35
2022-08-24T15:22:15.831Z,995.30
2022-08-24T15:23:15.863Z,995.34
2022-08-24T15:24:15.903Z,995.32
2022-08-24T15:25:15.820Z,995.24
2022-08-24T15:26:15.789Z,995.26
2022-08-24T15:27:15.770Z,995.29
2022-08-24T15:28:15.765Z,995.30
2022-08-24T15:29:15.787Z,995.26
2022-08-24T15:30:15.741Z,995.27
2022-08-24T15:31:15.773Z,995.29
2022-08-24T15:32:15.775Z,995.25
2022-08-24T15:33:19.113Z,995.24
2022-08-24T15:34:15.709Z,995.19
2022-08-24T15:35:15.685Z,995.22
2022-08-24T15:36:15.680Z,995.20
2022-08-24T15:37:15.669Z,995.24
2022-08-24T15:38:15.668Z,995.16
2022-08-24T15:39:15.669Z,995.20
2022-08-24T15:40:15.660Z,995.17
2022-08-24T15:41:15.622Z,995.17
2022-08-24T15:42:15.658Z,995.19
2022-08-24T15:43:15.595Z,995.17
2022-08-24T15:44:21.184Z,995.19
2022-08-24T15:45:16.627Z,995.20
2022-08-24T15:46:15.601Z,995.15
2022-08-24T15:47:15.565Z,995.17
2022-08-24T15:48:15.550Z,995.14
2022-08-24T15:49:15.531Z,995.17
2022-08-24T15:50:15.567Z,995.15
2022-08-24T15:51:15.968Z,995.15
2022-08-24T15:52:15.503Z,995.14
2022-08-24T15:53:15.507Z,995.15
2022-08-24T15:54:15.482Z,995.14
2022-08-24T15:55:15.469Z,995.18
2022-08-24T15:56:15.465Z,995.20
2022-08-24T15:57:15.482Z,995.17
2022-08-24T15:58:15.452Z,995.21
2022-08-24T15:59:15.429Z,995.21
2022-08-24T16:00:15.420Z,995.20
2022-08-24T16:01:15.458Z,995.20
2022-08-24T16:02:15.491Z,995.19
2022-08-24T16:03:15.456Z,995.21
2022-08-24T16:04:15.380Z,995.20
2022-08-24T16:05:15.362Z,995.18
2022-08-24T16:06:15.393Z,995.19
2022-08-24T16:07:15.343Z,995.17
2022-08-24T16:08:15.466Z,995.16
2022-08-24T16:09:15.344Z,995.20
2022-08-24T16:10:15.327Z,995.19
2022-08-24T16:11:15.305Z,995.18
2022-08-24T16:12:15.286Z,995.18
2022-08-24T16:13:15.307Z,995.15
2022-08-24T16:14:15.285Z,995.16
2022-08-24T16:15:15.312Z,995.14
2022-08-24T16:16:15.314Z,995.12
2022-08-24T16:17:15.258Z,995.12
2022-08-24T16:18:15.236Z,995.12
2022-08-24T16:19:15.521Z,995.10
2022-08-24T16:20:15.263Z,995.08
2022-08-24T16:21:15.239Z,995.09
2022-08-24T16:22:15.181Z,995.07
2022-08-24T16:23:15.191Z,995.18
2022-08-24T16:24:15.444Z,995.10
2022-08-24T16:25:15.199Z,995.13
2022-08-24T16:26:15.138Z,995.11
2022-08-24T16:27:15.132Z,995.09
2022-08-24T16:28:15.126Z,995.08
2022-08-24T16:29:15.163Z,995.08
2022-08-24T16:30:15.126Z,995.08
2022-08-24T16:31:15.168Z,995.05
2022-08-24T16:32:19.106Z,995.05
2022-08-24T16:33:16.068Z,995.05
2022-08-24T16:34:15.489Z,995.04
2022-08-24T16:35:15.040Z,994.97
2022-08-24T16:36:15.044Z,995.00
2022-08-24T16:37:15.022Z,995.05
2022-08-24T16:38:15.087Z,995.02
2022-08-24T16:39:15.008Z,994.99
2022-08-24T16:40:15.534Z,994.98
2022-08-24T16:41:15.010Z,995.02
2022-08-24T16:42:14.974Z,995.00
2022-08-24T16:43:14.975Z,995.04
2022-08-24T16:44:14.949Z,995.01
2022-08-24T16:45:15.489Z,995.01
2022-08-24T16:46:14.968Z,995.04
2022-08-24T16:47:14.923Z,995.03
2022-08-24T16:48:14.911Z,995.01
2022-08-24T16:49:14.929Z,995.07
2022-08-24T16:50:14.900Z,995.00
2022-08-24T16:51:14.979Z,995.03
2022-08-24T16:52:14.861Z,995.05
2022-08-24T16:53:14.859Z,995.02
2022-08-24T16:54:14.863Z,994.97
2022-08-24T16:55:14.925Z,994.97
2022-08-24T16:56:16.810Z,994.96
2022-08-24T16:57:14.982Z,995.03
2022-08-24T16:58:14.805Z,995.00
2022-08-24T16:59:14.791Z,994.97
2022-08-24T17:00:14.786Z,994.97
2022-08-24T17:01:14.812Z,995.00
2022-08-24T17:02:15.048Z,994.98
2022-08-24T17:03:15.340Z,995.01
2022-08-24T17:04:14.747Z,995.04
2022-08-24T17:05:14.725Z,994.99
2022-08-24T17:06:14.720Z,995.00
2022-08-24T17:07:14.776Z,995.00
2022-08-24T17:08:14.710Z,994.97
2022-08-24T17:09:14.680Z,994.99
2022-08-24T17:10:14.682Z,995.03
2022-08-24T17:11:14.798Z,994.99
2022-08-24T17:12:14.660Z,994.97
2022-08-24T17:13:33.118Z,994.98
2022-08-24T17:14:15.630Z,994.99
2022-08-24T17:15:14.612Z,994.96
2022-08-24T17:16:14.689Z,995.01
2022-08-24T17:17:14.602Z,995.02
2022-08-24T17:18:14.614Z,994.95
2022-08-24T17:19:15.201Z,994.99
2022-08-24T17:20:14.583Z,994.95
2022-08-24T17:21:14.569Z,994.96
2022-08-24T17:22:16.515Z,994.95
2022-08-24T17:23:14.534Z,994.97
2022-08-24T17:24:14.518Z,994.97
2022-08-24T17:25:15.016Z,994.96
2022-08-24T17:26:20.925Z,994.96
2022-08-24T17:27:15.491Z,994.99
2022-08-24T17:28:14.494Z,995.01
2022-08-24T17:29:16.922Z,995.06
2022-08-24T17:30:14.474Z,995.03
2022-08-24T17:31:14.593Z,995.06
2022-08-24T17:32:14.593Z,995.05
2022-08-24T17:33:14.450Z,995.03
2022-08-24T17:34:14.428Z,995.09
2022-08-24T17:35:14.394Z,995.04
2022-08-24T17:36:15.736Z,995.04
2022-08-24T17:37:14.573Z,995.06
2022-08-24T17:38:14.445Z,995.06
2022-08-24T17:39:14.353Z,995.08
2022-08-24T17:40:14.546Z,995.12
2022-08-24T17:41:14.366Z,995.17
2022-08-24T17:42:34.007Z,995.11
2022-08-24T17:43:15.389Z,995.14
2022-08-24T17:44:14.291Z,995.17
2022-08-24T17:45:14.291Z,995.16
2022-08-24T17:46:14.448Z,995.15
2022-08-24T17:47:14.269Z,995.17
2022-08-24T17:48:14.653Z,995.18
2022-08-24T17:49:14.282Z,995.15
2022-08-24T17:50:14.350Z,995.20
2022-08-24T17:51:14.228Z,995.16
2022-08-24T17:52:14.253Z,995.17
2022-08-24T17:53:14.229Z,995.17
2022-08-24T17:54:14.557Z,995.14
2022-08-24T17:55:14.223Z,995.16
2022-08-24T17:56:14.155Z,995.21
2022-08-24T17:57:14.147Z,995.18
2022-08-24T17:58:14.145Z,995.22
2022-08-24T17:59:14.749Z,995.24
2022-08-24T18:00:14.124Z,995.22
2022-08-24T18:01:14.177Z,995.22
2022-08-24T18:02:14.092Z,995.20
2022-08-24T18:03:16.617Z,995.21
2022-08-24T18:04:14.116Z,995.22
2022-08-24T18:05:14.671Z,995.21
2022-08-24T18:06:14.067Z,995.21
2022-08-24T18:07:16.656Z,995.21
2022-08-24T18:08:15.065Z,995.20
2022-08-24T18:09:14.008Z,995.28
2022-08-24T18:10:14.478Z,995.17
2022-08-24T18:11:14.027Z,995.27
2022-08-24T18:12:13.974Z,995.25
2022-08-24T18:13:13.964Z,995.23
2022-08-24T18:14:13.969Z,995.24
2022-08-24T18:15:14.022Z,995.27
2022-08-24T18:16:14.007Z,995.31
2022-08-24T18:17:13.945Z,995.26
2022-08-24T18:18:13.921Z,995.28
2022-08-24T18:19:13.910Z,995.34
2022-08-24T18:20:13.938Z,995.30
2022-08-24T18:21:14.135Z,995.32
2022-08-24T18:22:13.962Z,995.30
2022-08-24T18:23:14.114Z,995.34
2022-08-24T18:24:14.841Z,995.34
2022-08-24T18:25:13.974Z,995.34
2022-08-24T18:26:13.822Z,995.33
2022-08-24T18:27:13.846Z,995.34
2022-08-24T18:28:13.860Z,995.34
2022-08-24T18:29:13.907Z,995.33
2022-08-24T18:30:13.781Z,995.30
2022-08-24T18:31:14.039Z,995.37
2022-08-24T18:32:14.021Z,995.36
2022-08-24T18:33:13.784Z,995.39
2022-08-24T18:34:13.753Z,995.40
2022-08-24T18:35:13.736Z,995.39
2022-08-24T18:36:13.744Z,995.33
2022-08-24T18:37:13.718Z,995.37
2022-08-24T18:38:14.010Z,995.40
2022-08-24T18:39:13.729Z,995.41
2022-08-24T18:40:15.697Z,995.41
2022-08-24T18:41:14.668Z,995.40
2022-08-24T18:42:13.660Z,995.40
2022-08-24T18:43:13.642Z,995.43
2022-08-24T18:44:15.601Z,995.45
2022-08-24T18:45:13.612Z,995.45
2022-08-24T18:46:13.652Z,995.45
2022-08-24T18:47:13.600Z,995.43
2022-08-24T18:48:13.603Z,995.46
2022-08-24T18:49:13.601Z,995.49
2022-08-24T18:50:14.066Z,995.47
2022-08-24T18:51:13.563Z,995.47
2022-08-24T18:52:13.576Z,995.45
2022-08-24T18:53:13.533Z,995.44
2022-08-24T18:54:13.546Z,995.45
2022-08-24T18:55:13.988Z,995.48
2022-08-24T18:56:13.498Z,995.44
2022-08-24T18:57:13.486Z,995.44
2022-08-24T18:58:13.475Z,995.41
2022-08-24T18:59:13.467Z,995.41
2022-08-24T19:00:13.557Z,995.42
2022-08-24T19:01:13.599Z,995.42
2022-08-24T19:02:13.615Z,995.47
2022-08-24T19:03:13.431Z,995.45
2022-08-24T19:04:14.298Z,995.48
2022-08-24T19:05:13.437Z,995.47
2022-08-24T19:06:13.427Z,995.50
2022-08-24T19:07:13.384Z,995.48
2022-08-24T19:08:13.363Z,995.46
2022-08-24T19:09:13.354Z,995.52
2022-08-24T19:10:13.359Z,995.50
2022-08-24T19:11:13.356Z,995.48
2022-08-24T19:12:13.549Z,995.50
2022-08-24T19:13:13.324Z,995.46
2022-08-24T19:14:13.297Z,995.47
2022-08-24T19:15:32.211Z,995.50
2022-08-24T19:16:14.348Z,995.53
2022-08-24T19:17:13.390Z,995.52
2022-08-24T19:18:13.261Z,995.50
2022-08-24T19:19:13.259Z,995.53
2022-08-24T19:20:13.231Z,995.48
2022-08-24T19:21:13.240Z,995.52
2022-08-24T19:22:13.230Z,995.56
2022-08-24T19:23:13.228Z,995.55
2022-08-24T19:24:13.193Z,995.54
2022-08-24T19:25:13.192Z,995.54
2022-08-24T19:26:13.167Z,995.51
2022-08-24T19:27:13.163Z,995.53
2022-08-24T19:28:13.146Z,995.51
2022-08-24T19:29:13.214Z,995.55
2022-08-24T19:30:13.122Z,995.57
2022-08-24T19:31:13.193Z,995.56
2022-08-24T19:32:20.242Z,995.54
2022-08-24T19:33:14.613Z,995.58
2022-08-24T19:34:13.103Z,995.57
2022-08-24T19:35:13.130Z,995.53
2022-08-24T19:36:13.063Z,995.55
2022-08-24T19:37:13.045Z,995.55
2022-08-24T19:38:13.040Z,995.57
2022-08-24T19:39:13.030Z,995.51
2022-08-24T19:40:13.097Z,995.53
2022-08-24T19:41:14.314Z,995.51
2022-08-24T19:42:12.984Z,995.53
2022-08-24T19:43:12.973Z,995.59
2022-08-24T19:44:23.483Z,995.57
2022-08-24T19:45:13.961Z,995.59
2022-08-24T19:46:12.998Z,995.59
2022-08-24T19:47:13.032Z,995.59
2022-08-24T19:48:12.960Z,995.58
2022-08-24T19:49:12.907Z,995.56
2022-08-24T19:50:12.899Z,995.55
2022-08-24T19:51:12.927Z,995.56
2022-08-24T19:52:12.878Z,995.58
2022-08-24T19:53:12.947Z,995.50
2022-08-24T19:54:12.860Z,995.56
2022-08-24T19:55:12.844Z,995.56
2022-08-24T19:56:12.842Z,995.59
2022-08-24T19:57:12.821Z,995.58
2022-08-24T19:58:12.824Z,995.53
2022-08-24T19:59:12.871Z,995.52
2022-08-24T20:00:12.795Z,995.57
2022-08-24T20:01:12.882Z,995.59
2022-08-24T20:02:12.808Z,995.58
2022-08-24T20:03:12.753Z,995.66
2022-08-24T20:04:12.798Z,995.66
2022-08-24T20:05:13.032Z,995.67
2022-08-24T20:06:12.729Z,995.63
2022-08-24T20:07:12.711Z,995.61
2022-08-24T20:08:13.020Z,995.63
2022-08-24T20:09:12.687Z,995.64
2022-08-24T20:10:13.264Z,995.65
2022-08-24T20:11:12.676Z,995.64
2022-08-24T20:12:12.678Z,995.64
2022-08-24T20:13:12.662Z,995.67
2022-08-24T20:14:12.701Z,995.66
2022-08-24T20:15:12.627Z,995.67
2022-08-24T20:16:12.679Z,995.73
2022-08-24T20:17:12.600Z,995.69
2022-08-24T20:18:12.640Z,995.71
2022-08-24T20:19:12.578Z,995.76
2022-08-24T20:20:13.075Z,995.79
2022-08-24T20:21:12.556Z,995.79
2022-08-24T20:22:13.606Z,995.81
2022-08-24T20:23:12.546Z,995.80
2022-08-24T20:24:12.557Z,995.82
2022-08-24T20:25:12.516Z,995.87
2022-08-24T20:26:12.541Z,995.86
2022-08-24T20:27:12.491Z,995.83
2022-08-24T20:28:28.828Z,995.83
2022-08-24T20:29:13.459Z,995.81
2022-08-24T20:30:12.457Z,995.81
2022-08-24T20:31:12.609Z,995.81
2022-08-24T20:32:12.435Z,995.84
2022-08-24T20:33:12.436Z,995.84
2022-08-24T20:34:12.404Z,995.78
2022-08-24T20:35:12.405Z,995.81
2022-08-24T20:36:13.030Z,995.83
2022-08-24T20:37:12.373Z,995.86
2022-08-24T20:38:12.375Z,995.83
2022-08-24T20:39:12.358Z,995.83
2022-08-24T20:40:12.397Z,995.81
2022-08-24T20:41:12.345Z,995.85
2022-08-24T20:42:17.379Z,995.83
2022-08-24T20:43:13.309Z,995.83
2022-08-24T20:44:12.296Z,995.82
2022-08-24T20:45:12.303Z,995.80
2022-08-24T20:46:12.359Z,995.80
2022-08-24T20:47:12.300Z,995.80
2022-08-24T20:48:12.309Z,995.79
2022-08-24T20:49:15.239Z,995.82
2022-08-24T20:50:12.238Z,995.82
2022-08-24T20:51:12.239Z,995.81
2022-08-24T20:52:12.205Z,995.85
2022-08-24T20:53:12.232Z,995.81
2022-08-24T20:54:12.195Z,995.82
2022-08-24T20:55:12.172Z,995.82
2022-08-24T20:56:12.159Z,995.81
2022-08-24T20:57:12.163Z,995.83
2022-08-24T20:58:12.159Z,995.87
2022-08-24T20:59:12.547Z,995.83
2022-08-24T21:00:12.150Z,995.87
2022-08-24T21:01:12.197Z,995.90
2022-08-24T21:02:12.096Z,995.86
2022-08-24T21:03:12.526Z,995.89
2022-08-24T21:04:12.190Z,995.90
2022-08-24T21:05:12.077Z,995.93
2022-08-24T21:06:12.063Z,995.91
2022-08-24T21:07:12.037Z,995.90
2022-08-24T21:08:12.033Z,995.90
2022-08-24T21:09:12.851Z,995.94
2022-08-24T21:10:12.013Z,995.98
2022-08-24T21:11:12.046Z,995.97
2022-08-24T21:12:11.987Z,995.92
2022-08-24T21:13:11.988Z,995.97
2022-08-24T21:14:11.965Z,995.93
2022-08-24T21:15:11.945Z,995.96
2022-08-24T21:16:12.007Z,996.00
2022-08-24T21:17:11.948Z,995.98
2022-08-24T21:18:11.917Z,995.98
2022-08-24T21:19:11.901Z,995.95
2022-08-24T21:20:11.892Z,995.96
2022-08-24T21:21:11.886Z,995.97
2022-08-24T21:22:11.872Z,995.94
2022-08-24T21:23:12.207Z,995.96
2022-08-24T21:24:12.561Z,995.94
2022-08-24T21:25:11.834Z,995.96
2022-08-24T21:26:11.825Z,996.02
2022-08-24T21:27:11.832Z,995.94
2022-08-24T21:28:13.955Z,996.00
2022-08-24T21:29:11.843Z,995.96
2022-08-24T21:30:11.789Z,995.97
2022-08-24T21:31:11.800Z,995.95
2022-08-24T21:32:11.765Z,995.97
2022-08-24T21:33:11.746Z,995.95
2022-08-24T21:34:11.731Z,995.99
2022-08-24T21:35:15.187Z,996.00
2022-08-24T21:36:12.032Z,996.00
2022-08-24T21:37:11.706Z,995.97
2022-08-24T21:38:11.717Z,995.99
2022-08-24T21:39:11.674Z,996.00
2022-08-24T21:40:11.729Z,996.01
2022-08-24T21:41:12.136Z,995.98
2022-08-24T21:42:11.655Z,996.03
2022-08-24T21:43:17.668Z,995.97
2022-08-24T21:44:12.624Z,996.04
2022-08-24T21:45:11.612Z,996.04
2022-08-24T21:46:11.703Z,996.05
2022-08-24T21:47:11.648Z,996.03
2022-08-24T21:48:11.595Z,996.03
2022-08-24T21:49:12.016Z,996.04
2022-08-24T21:50:11.552Z,996.03
2022-08-24T21:51:11.541Z,996.07
2022-08-24T21:52:11.549Z,996.06
2022-08-24T21:53:11.577Z,996.08
2022-08-24T21:54:11.518Z,996.00
2022-08-24T21:55:14.836Z,996.04
2022-08-24T21:56:11.500Z,996.02
2022-08-24T21:57:11.493Z,996.06
2022-08-24T21:58:11.484Z,996.06
2022-08-24T21:59:11.992Z,996.09
2022-08-24T22:00:11.443Z,996.01
2022-08-24T22:01:11.427Z,996.03
2022-08-24T22:02:11.480Z,996.05
2022-08-24T22:03:12.555Z,996.08
2022-08-24T22:04:11.402Z,996.09
2022-08-24T22:05:11.573Z,996.05
2022-08-24T22:06:11.402Z,996.08
2022-08-24T22:07:11.374Z,996.11
2022-08-24T22:08:11.360Z,996.08
2022-08-24T22:09:11.349Z,996.08
2022-08-24T22:10:11.329Z,996.11
2022-08-24T22:11:11.348Z,996.06
2022-08-24T22:12:11.578Z,996.12
2022-08-24T22:13:11.599Z,996.09
2022-08-24T22:14:11.290Z,996.12
2022-08-24T22:15:11.312Z,996.15
2022-08-24T22:16:11.352Z,996.14
2022-08-24T22:17:11.304Z,996.16
2022-08-24T22:18:11.581Z,996.12
2022-08-24T22:19:11.226Z,996.09
2022-08-24T22:20:16.050Z,996.11
2022-08-24T22:21:12.212Z,996.07
2022-08-24T22:22:11.200Z,996.14
2022-08-24T22:23:11.574Z,996.11
2022-08-24T22:24:11.176Z,996.16
2022-08-24T22:25:11.165Z,996.11
2022-08-24T22:26:11.150Z,996.10
2022-08-24T22:27:11.160Z,996.09
2022-08-24T22:28:11.146Z,996.09
2022-08-24T22:29:11.581Z,996.10
2022-08-24T22:30:11.129Z,996.10
2022-08-24T22:31:11.156Z,996.11
2022-08-24T22:32:11.093Z,996.12
2022-08-24T22:33:12.029Z,996.11
2022-08-24T22:34:11.112Z,996.08
2022-08-24T22:35:11.072Z,996.10
2022-08-24T22:36:11.055Z,996.10
2022-08-24T22:37:11.037Z,996.13
2022-08-24T22:38:11.049Z,996.07
2022-08-24T22:39:11.003Z,996.09
2022-08-24T22:40:12.658Z,996.08
2022-08-24T22:41:11.075Z,996.05
2022-08-24T22:42:10.978Z,996.02
2022-08-24T22:43:10.970Z,996.00
2022-08-24T22:44:10.951Z,996.03
2022-08-24T22:45:10.951Z,996.01
2022-08-24T22:46:11.143Z,996.00
2022-08-24T22:47:13.057Z,996.00
2022-08-24T22:48:10.908Z,996.02
2022-08-24T22:49:10.933Z,996.00
2022-08-24T22:50:10.909Z,995.98
2022-08-24T22:51:10.870Z,996.01
2022-08-24T22:52:11.089Z,996.03
2022-08-24T22:53:10.844Z,995.95
2022-08-24T22:54:10.836Z,996.04
2022-08-24T22:55:10.847Z,996.04
2022-08-24T22:56:10.815Z,995.97
2022-08-24T22:57:10.799Z,996.02
2022-08-24T22:58:11.143Z,995.99
2022-08-24T22:59:10.779Z,995.98
2022-08-24T23:00:10.774Z,995.98
2022-08-24T23:01:11.603Z,995.96
2022-08-24T23:02:10.805Z,996.00
2022-08-24T23:03:10.812Z,996.02
2022-08-24T23:04:10.749Z,996.01
2022-08-24T23:05:10.712Z,996.05
2022-08-24T23:06:10.699Z,996.04
2022-08-24T23:07:10.694Z,996.03
2022-08-24T23:08:10.686Z,996.04
2022-08-24T23:09:10.742Z,996.08
2022-08-24T23:10:10.659Z,996.05
2022-08-24T23:11:10.676Z,996.03
2022-08-24T23:12:10.637Z,996.04
2022-08-24T23:13:10.621Z,996.05
2022-08-24T23:14:10.633Z,996.05
2022-08-24T23:15:11.081Z,996.10
2022-08-24T23:16:10.653Z,996.03
2022-08-24T23:17:10.598Z,996.05
2022-08-24T23:18:11.072Z,996.04
2022-08-24T23:19:10.551Z,996.00
2022-08-24T23:20:10.555Z,995.98
2022-08-24T23:21:10.532Z,996.04
2022-08-24T23:22:10.517Z,996.02
2022-08-24T23:23:10.511Z,996.03
2022-08-24T23:24:10.558Z,995.99
2022-08-24T23:25:10.487Z,995.97
2022-08-24T23:26:10.478Z,996.01
2022-08-24T23:27:11.469Z,996.00
2022-08-24T23:28:10.464Z,996.01
2022-08-24T23:29:10.442Z,995.98
2022-08-24T23:30:10.639Z,996.01
2022-08-24T23:31:10.503Z,995.96
2022-08-24T23:32:10.412Z,995.97
2022-08-24T23:33:10.429Z,995.97
2022-08-24T23:34:10.382Z,995.95
2022-08-24T23:35:10.409Z,995.92
2022-08-24T23:36:10.379Z,995.93
2022-08-24T23:37:10.348Z,995.98
2022-08-24T23:38:10.338Z,995.91
2022-08-24T23:39:10.336Z,995.93
2022-08-24T23:40:10.439Z,995.92
2022-08-24T23:41:10.595Z,995.94
2022-08-24T23:42:10.312Z,995.87
2022-08-24T23:43:10.301Z,995.89
2022-08-24T23:44:10.279Z,995.87
2022-08-24T23:45:11.849Z,995.90
2022-08-24T23:46:10.334Z,995.89
2022-08-24T23:47:10.633Z,995.88
2022-08-24T23:48:10.226Z,995.89
2022-08-24T23:49:10.248Z,995.93
2022-08-24T23:50:11.281Z,995.87
2022-08-24T23:51:10.198Z,995.80
2022-08-24T23:52:12.408Z,995.88
2022-08-24T23:53:11.575Z,995.85
2022-08-24T23:54:10.161Z,995.87
2022-08-24T23:55:21.598Z,995.87
2022-08-24T23:56:11.131Z,995.85
2022-08-24T23:57:10.147Z,995.85
2022-08-24T23:58:10.569Z,995.86
2022-08-24T23:59:10.107Z,995.88
